createdAt,value
2017-02-09T00:00:07.734Z,2.26
2017-02-09T00:01:07.379Z,2.51
2017-02-09T00:02:07.059Z,2.43
2017-02-09T00:03:07.723Z,2.79
2017-02-09T00:04:07.381Z,2.41
2017-02-09T00:05:07.976Z,2.24
2017-02-09T00:06:07.658Z,2.06
2017-02-09T00:07:07.266Z,2.30
2017-02-09T00:08:07.925Z,2.06
2017-02-09T00:09:07.674Z,2.07
2017-02-09T00:10:07.233Z,2.20
2017-02-09T00:11:07.880Z,2.26
2017-02-09T00:12:08.607Z,2.14
2017-02-09T00:13:07.212Z,2.32
2017-02-09T00:14:07.899Z,2.42
2017-02-09T00:15:08.604Z,2.36
2017-02-09T00:16:07.206Z,2.37
2017-02-09T00:17:07.949Z,2.40
2017-02-09T00:18:07.713Z,2.39
2017-02-09T00:19:07.354Z,2.19
2017-02-09T00:20:07.973Z,2.11
2017-02-09T00:21:07.660Z,1.96
2017-02-09T00:22:07.318Z,2.18
2017-02-09T00:23:07.989Z,2.42
2017-02-09T00:24:07.672Z,2.16
2017-02-09T00:25:07.271Z,2.06
2017-02-09T00:26:07.162Z,2.15
2017-02-09T00:27:07.699Z,2.19
2017-02-09T00:28:07.372Z,2.20
2017-02-09T00:29:07.056Z,2.12
2017-02-09T00:30:07.682Z,2.14
2017-02-09T00:31:07.354Z,2.11
2017-02-09T00:32:07.984Z,2.10
2017-02-09T00:33:07.682Z,2.26
2017-02-09T00:34:07.354Z,2.39
2017-02-09T00:35:07.974Z,2.17
2017-02-09T00:36:07.614Z,2.11
2017-02-09T00:37:07.290Z,2.35
2017-02-09T00:38:07.955Z,2.25
2017-02-09T00:39:07.651Z,2.22
2017-02-09T00:40:07.255Z,2.05
2017-02-09T00:41:07.928Z,2.32
2017-02-09T00:42:17.690Z,2.27
2017-02-09T00:43:07.269Z,2.35
2017-02-09T00:44:08.158Z,2.26
2017-02-09T00:45:07.643Z,2.34
2017-02-09T00:46:07.209Z,2.34
2017-02-09T00:47:08.919Z,2.24
2017-02-09T00:48:07.562Z,2.19
2017-02-09T00:49:07.241Z,2.22
2017-02-09T00:50:07.871Z,2.08
2017-02-09T00:51:07.537Z,1.98
2017-02-09T00:52:07.169Z,2.11
2017-02-09T00:53:07.795Z,1.83
2017-02-09T00:54:07.468Z,2.08
2017-02-09T00:55:07.073Z,1.91
2017-02-09T00:56:07.839Z,1.93
2017-02-09T00:57:07.470Z,2.13
2017-02-09T00:58:07.167Z,2.03
2017-02-09T00:59:07.820Z,2.14
2017-02-09T01:00:07.510Z,1.89
2017-02-09T01:01:07.119Z,1.68
2017-02-09T01:02:07.788Z,1.75
2017-02-09T01:03:07.490Z,1.76
2017-02-09T01:04:07.043Z,2.08
2017-02-09T01:05:07.791Z,1.94
2017-02-09T01:06:07.444Z,1.96
2017-02-09T01:07:07.068Z,1.97
2017-02-09T01:08:07.711Z,1.91
2017-02-09T01:09:07.404Z,1.81
2017-02-09T01:10:07.040Z,2.00
2017-02-09T01:11:07.707Z,2.23
2017-02-09T01:12:07.333Z,2.03
2017-02-09T01:13:07.992Z,1.97
2017-02-09T01:14:07.703Z,1.96
2017-02-09T01:15:07.322Z,2.18
2017-02-09T01:16:07.954Z,2.13
2017-02-09T01:17:07.600Z,2.16
2017-02-09T01:18:07.379Z,2.01
2017-02-09T01:19:08.027Z,2.19
2017-02-09T01:20:07.675Z,1.64
2017-02-09T01:21:07.319Z,1.95
2017-02-09T01:22:07.985Z,1.80
2017-02-09T01:23:07.666Z,2.06
2017-02-09T01:24:07.359Z,2.04
2017-02-09T01:25:07.955Z,2.07
2017-02-09T01:26:07.782Z,1.90
2017-02-09T01:27:07.399Z,1.91
2017-02-09T01:28:07.031Z,2.10
2017-02-09T01:29:07.717Z,2.03
2017-02-09T01:30:07.307Z,1.73
2017-02-09T01:31:07.940Z,1.76
2017-02-09T01:32:07.736Z,1.73
2017-02-09T01:33:07.410Z,1.84
2017-02-09T01:34:07.071Z,1.99
2017-02-09T01:35:07.708Z,1.94
2017-02-09T01:36:07.361Z,1.98
2017-02-09T01:37:07.991Z,2.03
2017-02-09T01:38:07.644Z,1.73
2017-02-09T01:39:07.330Z,1.85
2017-02-09T01:40:07.904Z,1.85
2017-02-09T01:41:07.561Z,1.81
2017-02-09T01:42:07.239Z,2.14
2017-02-09T01:43:07.850Z,2.05
2017-02-09T01:44:07.629Z,2.08
2017-02-09T01:45:07.212Z,2.18
2017-02-09T01:46:07.844Z,1.98
2017-02-09T01:47:07.494Z,1.85
2017-02-09T01:48:07.186Z,1.72
2017-02-09T01:49:07.863Z,1.93
2017-02-09T01:50:07.483Z,1.84
2017-02-09T01:51:07.108Z,1.76
2017-02-09T01:52:07.762Z,1.91
2017-02-09T01:53:07.375Z,1.75
2017-02-09T01:54:07.222Z,2.02
2017-02-09T01:55:07.713Z,1.93
2017-02-09T01:56:07.515Z,1.76
2017-02-09T01:57:07.155Z,1.80
2017-02-09T01:58:07.855Z,1.74
2017-02-09T01:59:07.547Z,1.77
2017-02-09T02:00:07.166Z,1.72
2017-02-09T02:01:07.830Z,1.72
2017-02-09T02:02:07.437Z,1.76
2017-02-09T02:03:07.116Z,1.79
2017-02-09T02:04:07.775Z,1.92
2017-02-09T02:05:07.430Z,1.94
2017-02-09T02:06:07.068Z,1.92
2017-02-09T02:07:07.737Z,1.90
2017-02-09T02:08:07.386Z,1.76
2017-02-09T02:09:07.103Z,1.92
2017-02-09T02:10:07.745Z,1.93
2017-02-09T02:11:07.408Z,1.82
2017-02-09T02:12:07.044Z,1.83
2017-02-09T02:13:07.740Z,1.80
2017-02-09T02:14:07.490Z,1.87
2017-02-09T02:15:07.071Z,1.68
2017-02-09T02:16:07.684Z,1.72
2017-02-09T02:17:07.437Z,1.75
2017-02-09T02:18:07.257Z,1.69
2017-02-09T02:19:07.961Z,1.61
2017-02-09T02:20:07.558Z,1.72
2017-02-09T02:21:07.207Z,1.33
2017-02-09T02:22:07.843Z,1.46
2017-02-09T02:23:07.499Z,1.77
2017-02-09T02:24:07.308Z,1.78
2017-02-09T02:25:07.826Z,1.64
2017-02-09T02:26:07.635Z,1.71
2017-02-09T02:27:07.308Z,1.79
2017-02-09T02:28:07.961Z,1.91
2017-02-09T02:29:07.661Z,1.61
2017-02-09T02:30:07.283Z,1.82
2017-02-09T02:31:08.019Z,1.63
2017-02-09T02:32:07.588Z,1.78
2017-02-09T02:33:07.281Z,1.70
2017-02-09T02:34:08.131Z,1.61
2017-02-09T02:35:07.558Z,1.50
2017-02-09T02:36:07.224Z,1.91
2017-02-09T02:37:07.909Z,1.87
2017-02-09T02:38:07.550Z,1.86
2017-02-09T02:39:07.254Z,1.81
2017-02-09T02:40:07.853Z,1.59
2017-02-09T02:41:07.481Z,1.62
2017-02-09T02:42:07.169Z,1.77
2017-02-09T02:43:07.837Z,1.75
2017-02-09T02:44:07.517Z,2.02
2017-02-09T02:45:07.131Z,1.55
2017-02-09T02:46:07.794Z,1.56
2017-02-09T02:47:07.472Z,1.52
2017-02-09T02:48:07.177Z,1.79
2017-02-09T02:49:07.821Z,1.67
2017-02-09T02:50:07.437Z,1.63
2017-02-09T02:51:07.094Z,1.86
2017-02-09T02:52:07.753Z,1.80
2017-02-09T02:53:07.403Z,1.81
2017-02-09T02:54:07.036Z,1.94
2017-02-09T02:55:07.700Z,1.77
2017-02-09T02:56:07.397Z,1.87
2017-02-09T02:57:07.052Z,1.57
2017-02-09T02:58:07.670Z,1.35
2017-02-09T02:59:07.420Z,1.57
2017-02-09T03:00:07.999Z,1.59
2017-02-09T03:01:07.618Z,1.65
2017-02-09T03:02:07.291Z,1.60
2017-02-09T03:03:07.174Z,1.69
2017-02-09T03:04:07.810Z,1.70
2017-02-09T03:05:07.429Z,1.68
2017-02-09T03:06:07.047Z,1.56
2017-02-09T03:07:07.702Z,1.61
2017-02-09T03:08:07.334Z,1.71
2017-02-09T03:09:08.096Z,1.77
2017-02-09T03:10:07.630Z,1.86
2017-02-09T03:11:07.299Z,1.92
2017-02-09T03:12:07.936Z,1.98
2017-02-09T03:13:07.549Z,1.85
2017-02-09T03:14:07.271Z,1.83
2017-02-09T03:15:07.866Z,1.52
2017-02-09T03:16:07.532Z,1.83
2017-02-09T03:17:07.255Z,1.88
2017-02-09T03:18:07.991Z,1.80
2017-02-09T03:19:07.660Z,1.81
2017-02-09T03:20:07.283Z,1.94
2017-02-09T03:21:07.979Z,1.89
2017-02-09T03:22:07.580Z,1.62
2017-02-09T03:23:07.256Z,1.77
2017-02-09T03:24:07.952Z,1.72
2017-02-09T03:25:07.553Z,1.59
2017-02-09T03:26:07.343Z,1.45
2017-02-09T03:27:07.415Z,1.48
2017-02-09T03:28:07.097Z,1.38
2017-02-09T03:29:07.748Z,1.37
2017-02-09T03:30:07.380Z,1.65
2017-02-09T03:31:07.044Z,1.72
2017-02-09T03:32:07.654Z,1.58
2017-02-09T03:33:07.374Z,1.94
2017-02-09T03:34:08.024Z,1.74
2017-02-09T03:35:07.635Z,1.84
2017-02-09T03:36:07.615Z,1.96
2017-02-09T03:37:07.860Z,1.76
2017-02-09T03:38:07.537Z,1.58
2017-02-09T03:39:07.232Z,1.61
2017-02-09T03:40:07.875Z,1.76
2017-02-09T03:41:07.499Z,1.77
2017-02-09T03:42:07.152Z,1.79
2017-02-09T03:43:07.758Z,1.79
2017-02-09T03:44:07.468Z,1.79
2017-02-09T03:45:07.041Z,1.61
2017-02-09T03:46:07.740Z,1.78
2017-02-09T03:47:07.411Z,1.80
2017-02-09T03:48:07.026Z,1.84
2017-02-09T03:49:07.717Z,1.91
2017-02-09T03:50:07.340Z,1.64
2017-02-09T03:51:07.991Z,1.65
2017-02-09T03:52:07.688Z,1.74
2017-02-09T03:53:07.291Z,2.13
2017-02-09T03:54:08.063Z,1.80
2017-02-09T03:55:07.612Z,1.64
2017-02-09T03:56:07.402Z,1.50
2017-02-09T03:57:07.099Z,1.40
2017-02-09T03:58:07.713Z,1.59
2017-02-09T03:59:07.428Z,1.79
2017-02-09T04:00:08.017Z,1.71
2017-02-09T04:01:07.678Z,1.89
2017-02-09T04:02:07.331Z,1.40
2017-02-09T04:03:08.037Z,1.58
2017-02-09T04:04:07.712Z,1.71
2017-02-09T04:05:07.342Z,1.64
2017-02-09T04:06:07.971Z,1.54
2017-02-09T04:07:07.672Z,1.53
2017-02-09T04:08:07.264Z,1.68
2017-02-09T04:09:07.980Z,1.76
2017-02-09T04:10:07.597Z,1.74
2017-02-09T04:11:07.283Z,1.87
2017-02-09T04:12:07.905Z,1.79
2017-02-09T04:13:07.551Z,1.94
2017-02-09T04:14:07.270Z,1.86
2017-02-09T04:15:08.427Z,1.59
2017-02-09T04:16:07.542Z,1.48
2017-02-09T04:17:07.213Z,1.27
2017-02-09T04:18:08.030Z,1.51
2017-02-09T04:19:07.708Z,1.64
2017-02-09T04:20:07.298Z,1.84
2017-02-09T04:21:07.973Z,1.76
2017-02-09T04:22:07.623Z,1.73
2017-02-09T04:23:07.274Z,1.71
2017-02-09T04:24:07.963Z,1.68
2017-02-09T04:25:07.574Z,1.77
2017-02-09T04:26:07.359Z,1.52
2017-02-09T04:27:08.011Z,1.80
2017-02-09T04:28:07.674Z,1.78
2017-02-09T04:29:07.368Z,1.88
2017-02-09T04:30:08.025Z,1.70
2017-02-09T04:31:07.634Z,1.94
2017-02-09T04:32:07.305Z,1.77
2017-02-09T04:33:07.996Z,1.67
2017-02-09T04:34:07.687Z,1.40
2017-02-09T04:35:07.320Z,1.56
2017-02-09T04:36:07.940Z,1.51
2017-02-09T04:37:07.601Z,1.46
2017-02-09T04:38:07.239Z,1.61
2017-02-09T04:39:07.910Z,1.75
2017-02-09T04:40:07.537Z,1.71
2017-02-09T04:41:07.271Z,1.87
2017-02-09T04:42:07.829Z,1.79
2017-02-09T04:43:07.475Z,1.73
2017-02-09T04:44:07.149Z,1.63
2017-02-09T04:45:07.782Z,1.50
2017-02-09T04:46:07.445Z,1.65
2017-02-09T04:47:07.085Z,1.82
2017-02-09T04:48:07.777Z,1.92
2017-02-09T04:49:07.448Z,1.84
2017-02-09T04:50:07.040Z,1.66
2017-02-09T04:51:07.729Z,1.42
2017-02-09T04:52:07.348Z,1.60
2017-02-09T04:53:07.984Z,1.36
2017-02-09T04:54:07.675Z,1.61
2017-02-09T04:55:07.323Z,1.52
2017-02-09T04:56:07.071Z,1.77
2017-02-09T04:57:07.713Z,1.75
2017-02-09T04:58:07.398Z,1.38
2017-02-09T04:59:08.058Z,1.49
2017-02-09T05:00:07.698Z,1.33
2017-02-09T05:01:07.348Z,1.39
2017-02-09T05:02:07.953Z,1.53
2017-02-09T05:03:07.669Z,1.58
2017-02-09T05:04:07.336Z,1.69
2017-02-09T05:05:07.956Z,1.69
2017-02-09T05:06:07.637Z,1.47
2017-02-09T05:07:07.287Z,1.43
2017-02-09T05:08:07.950Z,1.35
2017-02-09T05:09:07.627Z,1.58
2017-02-09T05:10:07.320Z,1.57
2017-02-09T05:11:07.877Z,1.61
2017-02-09T05:12:07.523Z,2.00
2017-02-09T05:13:07.188Z,1.62
2017-02-09T05:14:07.877Z,1.69
2017-02-09T05:15:07.496Z,1.70
2017-02-09T05:16:07.151Z,1.79
2017-02-09T05:17:07.899Z,1.52
2017-02-09T05:18:07.637Z,1.33
2017-02-09T05:19:07.286Z,1.48
2017-02-09T05:20:07.862Z,1.70
2017-02-09T05:21:07.515Z,1.68
2017-02-09T05:22:07.158Z,1.90
2017-02-09T05:23:07.814Z,1.75
2017-02-09T05:24:07.486Z,1.54
2017-02-09T05:25:09.494Z,1.75
2017-02-09T05:26:07.532Z,1.94
2017-02-09T05:27:07.234Z,1.82
2017-02-09T05:28:07.906Z,1.81
2017-02-09T05:29:07.616Z,1.69
2017-02-09T05:30:07.257Z,1.71
2017-02-09T05:31:07.872Z,1.69
2017-02-09T05:32:07.533Z,1.51
2017-02-09T05:33:07.218Z,1.62
2017-02-09T05:34:07.848Z,1.50
2017-02-09T05:35:07.500Z,1.57
2017-02-09T05:36:07.137Z,1.54
2017-02-09T05:37:07.802Z,1.33
2017-02-09T05:38:07.472Z,1.31
2017-02-09T05:39:07.169Z,1.56
2017-02-09T05:40:07.762Z,1.79
2017-02-09T05:41:07.400Z,1.71
2017-02-09T05:42:07.037Z,1.67
2017-02-09T05:43:07.750Z,1.37
2017-02-09T05:44:07.447Z,1.57
2017-02-09T05:45:07.063Z,1.61
2017-02-09T05:46:07.695Z,1.93
2017-02-09T05:47:07.354Z,1.53
2017-02-09T05:48:08.059Z,1.91
2017-02-09T05:49:07.700Z,1.72
2017-02-09T05:50:07.344Z,1.54
2017-02-09T05:51:07.981Z,1.74
2017-02-09T05:52:07.619Z,1.89
2017-02-09T05:53:07.295Z,1.85
2017-02-09T05:54:08.027Z,1.68
2017-02-09T05:55:07.601Z,2.00
2017-02-09T05:56:07.397Z,1.81
2017-02-09T05:57:07.056Z,1.66
2017-02-09T05:58:07.708Z,1.63
2017-02-09T05:59:07.391Z,1.60
2017-02-09T06:00:07.976Z,1.42
2017-02-09T06:01:07.638Z,1.36
2017-02-09T06:02:07.300Z,1.31
2017-02-09T06:03:08.013Z,1.35
2017-02-09T06:04:07.673Z,1.63
2017-02-09T06:05:07.247Z,1.57
2017-02-09T06:06:07.919Z,1.58
2017-02-09T06:07:07.575Z,1.65
2017-02-09T06:08:07.196Z,1.64
2017-02-09T06:09:07.866Z,1.78
2017-02-09T06:10:07.481Z,1.88
2017-02-09T06:11:07.136Z,1.72
2017-02-09T06:12:07.799Z,1.72
2017-02-09T06:13:07.456Z,1.76
2017-02-09T06:14:07.118Z,1.75
2017-02-09T06:15:07.777Z,1.69
2017-02-09T06:16:07.403Z,1.68
2017-02-09T06:17:07.127Z,1.37
2017-02-09T06:18:07.887Z,1.24
2017-02-09T06:19:07.558Z,1.23
2017-02-09T06:20:07.247Z,1.25
2017-02-09T06:21:07.837Z,1.37
2017-02-09T06:22:07.495Z,1.40
2017-02-09T06:23:07.143Z,1.43
2017-02-09T06:24:07.857Z,1.36
2017-02-09T06:25:07.445Z,1.39
2017-02-09T06:26:07.285Z,1.40
2017-02-09T06:27:07.935Z,1.46
2017-02-09T06:28:07.580Z,1.28
2017-02-09T06:29:07.254Z,1.47
2017-02-09T06:30:07.883Z,1.41
2017-02-09T06:31:07.524Z,1.65
2017-02-09T06:32:07.209Z,1.35
2017-02-09T06:33:07.937Z,1.41
2017-02-09T06:34:07.575Z,1.34
2017-02-09T06:35:07.149Z,1.39
2017-02-09T06:36:07.845Z,1.62
2017-02-09T06:37:07.501Z,1.43
2017-02-09T06:38:07.162Z,1.52
2017-02-09T06:39:07.861Z,1.63
2017-02-09T06:40:07.504Z,1.65
2017-02-09T06:41:07.124Z,1.65
2017-02-09T06:42:07.795Z,1.74
2017-02-09T06:43:07.430Z,1.83
2017-02-09T06:44:07.072Z,1.90
2017-02-09T06:45:07.699Z,1.53
2017-02-09T06:46:07.355Z,1.73
2017-02-09T06:47:08.017Z,1.74
2017-02-09T06:48:07.699Z,1.63
2017-02-09T06:49:07.365Z,1.57
2017-02-09T06:50:07.963Z,1.37
2017-02-09T06:51:07.586Z,1.69
2017-02-09T06:52:07.248Z,1.36
2017-02-09T06:53:08.498Z,1.57
2017-02-09T06:54:07.567Z,1.31
2017-02-09T06:55:07.154Z,1.02
2017-02-09T06:56:07.938Z,1.26
2017-02-09T06:57:07.637Z,1.42
2017-02-09T06:58:07.304Z,1.26
2017-02-09T06:59:07.981Z,0.95
2017-02-09T07:00:07.610Z,1.22
2017-02-09T07:01:07.325Z,1.44
2017-02-09T07:02:07.965Z,1.38
2017-02-09T07:03:07.634Z,1.36
2017-02-09T07:04:07.281Z,1.45
2017-02-09T07:05:07.916Z,1.54
2017-02-09T07:06:07.544Z,1.61
2017-02-09T07:07:07.209Z,1.63
2017-02-09T07:08:07.883Z,1.39
2017-02-09T07:09:07.525Z,1.48
2017-02-09T07:10:07.157Z,1.75
2017-02-09T07:11:07.805Z,1.51
2017-02-09T07:12:07.465Z,1.60
2017-02-09T07:13:07.110Z,1.70
2017-02-09T07:14:08.060Z,1.70
2017-02-09T07:15:07.425Z,1.36
2017-02-09T07:16:07.099Z,1.54
2017-02-09T07:17:07.790Z,1.57
2017-02-09T07:18:07.570Z,1.96
2017-02-09T07:19:07.220Z,1.92
2017-02-09T07:20:07.792Z,1.62
2017-02-09T07:21:07.424Z,1.60
2017-02-09T07:22:07.137Z,1.57
2017-02-09T07:23:07.774Z,1.32
2017-02-09T07:24:07.466Z,1.38
2017-02-09T07:25:07.059Z,1.39
2017-02-09T07:26:07.848Z,1.32
2017-02-09T07:27:07.462Z,1.35
2017-02-09T07:28:07.182Z,1.27
2017-02-09T07:29:07.863Z,1.29
2017-02-09T07:30:07.463Z,1.48
2017-02-09T07:31:07.106Z,1.42
2017-02-09T07:32:07.810Z,1.38
2017-02-09T07:33:07.522Z,1.67
2017-02-09T07:34:07.183Z,1.73
2017-02-09T07:35:07.780Z,1.50
2017-02-09T07:36:07.395Z,1.67
2017-02-09T07:37:08.120Z,1.67
2017-02-09T07:38:08.815Z,1.75
2017-02-09T07:39:07.412Z,1.60
2017-02-09T07:40:15.527Z,1.64
2017-02-09T07:41:07.665Z,1.44
2017-02-09T07:43:07.392Z,1.65
2017-02-09T07:44:07.044Z,1.62
2017-02-09T07:45:07.719Z,1.50
2017-02-09T07:46:07.366Z,1.46
2017-02-09T07:47:08.107Z,1.58
2017-02-09T07:48:07.671Z,1.39
2017-02-09T07:49:08.426Z,1.48
2017-02-09T07:50:18.556Z,1.52
2017-02-09T07:51:08.713Z,1.73
2017-02-09T07:52:08.363Z,1.46
2017-02-09T07:53:07.927Z,1.54
2017-02-09T07:54:07.622Z,1.68
2017-02-09T07:55:08.344Z,1.60
2017-02-09T07:56:18.422Z,1.33
2017-02-09T07:57:07.607Z,1.34
2017-02-09T07:59:07.907Z,1.28
2017-02-09T08:00:08.656Z,1.41
2017-02-09T08:01:08.300Z,1.57
2017-02-09T08:02:07.867Z,1.46
2017-02-09T08:03:07.586Z,1.51
2017-02-09T08:04:07.214Z,1.54
2017-02-09T08:05:08.480Z,1.63
2017-02-09T08:06:07.988Z,1.59
2017-02-09T08:07:08.746Z,1.37
2017-02-09T08:08:07.298Z,1.85
2017-02-09T08:09:09.055Z,1.92
2017-02-09T08:10:08.717Z,1.69
2017-02-09T08:11:07.291Z,1.56
2017-02-09T08:12:08.965Z,1.51
2017-02-09T08:13:07.599Z,1.74
2017-02-09T08:14:08.296Z,1.84
2017-02-09T08:15:07.928Z,2.02
2017-02-09T08:16:08.676Z,1.83
2017-02-09T08:17:08.308Z,1.99
2017-02-09T08:18:08.182Z,1.61
2017-02-09T08:19:07.802Z,1.61
2017-02-09T08:20:08.504Z,1.54
2017-02-09T08:21:08.004Z,1.63
2017-02-09T08:22:08.785Z,1.79
2017-02-09T08:23:07.295Z,1.69
2017-02-09T08:24:07.972Z,1.80
2017-02-09T08:25:08.760Z,2.07
2017-02-09T08:26:07.292Z,1.89
2017-02-09T08:28:09.516Z,1.99
2017-02-09T08:28:19.208Z,2.07
2017-02-09T08:29:08.555Z,2.31
2017-02-09T08:30:18.048Z,2.11
2017-02-09T08:31:07.821Z,2.06
2017-02-09T08:32:07.515Z,2.09
2017-02-09T08:33:08.214Z,2.07
2017-02-09T08:34:27.422Z,1.99
2017-02-09T08:35:08.103Z,1.91
2017-02-09T08:36:07.925Z,2.00
2017-02-09T08:37:07.610Z,2.15
2017-02-09T08:38:07.259Z,1.99
2017-02-09T08:39:07.921Z,2.02
2017-02-09T08:40:07.843Z,2.10
2017-02-09T08:41:07.520Z,1.92
2017-02-09T08:42:08.078Z,1.91
2017-02-09T08:43:07.810Z,1.93
2017-02-09T08:44:07.395Z,2.15
2017-02-09T08:45:07.951Z,2.07
2017-02-09T08:46:08.273Z,2.08
2017-02-09T08:47:07.982Z,2.37
2017-02-09T08:48:07.723Z,2.30
2017-02-09T08:49:07.492Z,2.07
2017-02-09T08:50:08.339Z,2.21
2017-02-09T08:51:07.951Z,2.13
2017-02-09T08:52:07.658Z,2.08
2017-02-09T08:53:07.392Z,2.11
2017-02-09T08:54:08.093Z,2.10
2017-02-09T08:55:07.772Z,2.19
2017-02-09T08:56:07.445Z,2.17
2017-02-09T08:57:08.121Z,2.20
2017-02-09T08:58:07.722Z,2.25
2017-02-09T08:59:07.445Z,2.43
2017-02-09T09:00:08.159Z,2.25
2017-02-09T09:01:08.032Z,2.16
2017-02-09T09:02:07.743Z,2.29
2017-02-09T09:03:08.276Z,1.77
2017-02-09T09:04:07.703Z,1.85
2017-02-09T09:05:07.316Z,1.97
2017-02-09T09:06:07.985Z,2.33
2017-02-09T09:07:07.806Z,2.05
2017-02-09T09:08:07.420Z,2.06
2017-02-09T09:09:08.050Z,1.93
2017-02-09T09:10:07.707Z,1.97
2017-02-09T09:11:07.704Z,1.89
2017-02-09T09:12:07.388Z,1.63
2017-02-09T09:13:08.108Z,1.54
2017-02-09T09:14:07.837Z,1.90
2017-02-09T09:15:07.520Z,1.86
2017-02-09T09:16:08.218Z,1.85
2017-02-09T09:17:07.942Z,1.67
2017-02-09T09:18:07.773Z,1.85
2017-02-09T09:19:07.315Z,2.07
2017-02-09T09:20:07.754Z,1.96
2017-02-09T09:21:07.618Z,2.23
2017-02-09T09:22:07.294Z,2.13
2017-02-09T09:23:07.855Z,1.97
2017-02-09T09:24:07.518Z,2.01
2017-02-09T09:25:08.271Z,2.36
2017-02-09T09:26:23.239Z,2.16
2017-02-09T09:27:07.893Z,2.28
2017-02-09T09:28:07.606Z,2.10
2017-02-09T09:29:08.099Z,1.94
2017-02-09T09:30:08.021Z,2.10
2017-02-09T09:31:07.918Z,2.53
2017-02-09T09:32:07.652Z,2.61
2017-02-09T09:33:07.232Z,2.63
2017-02-09T09:34:07.943Z,2.34
2017-02-09T09:35:07.592Z,2.59
2017-02-09T09:36:07.235Z,2.85
2017-02-09T09:37:07.890Z,2.49
2017-02-09T09:38:07.445Z,2.37
2017-02-09T09:39:08.210Z,2.73
2017-02-09T09:40:07.897Z,2.53
2017-02-09T09:41:07.583Z,2.32
2017-02-09T09:42:07.369Z,2.15
2017-02-09T09:43:08.076Z,2.34
2017-02-09T09:44:07.779Z,2.35
2017-02-09T09:45:07.452Z,2.38
2017-02-09T09:46:08.221Z,2.44
2017-02-09T09:47:07.781Z,2.25
2017-02-09T09:48:08.343Z,2.42
2017-02-09T09:49:07.533Z,2.46
2017-02-09T09:50:08.368Z,2.59
2017-02-09T09:51:08.092Z,2.12
2017-02-09T09:52:07.501Z,2.09
2017-02-09T09:53:08.392Z,2.18
2017-02-09T09:54:07.906Z,2.14
2017-02-09T09:55:08.113Z,2.40
2017-02-09T09:56:07.567Z,2.57
2017-02-09T09:57:08.097Z,2.80
2017-02-09T09:58:07.688Z,2.98
2017-02-09T09:59:07.184Z,2.34
2017-02-09T10:00:07.745Z,2.57
2017-02-09T10:02:07.585Z,2.69
2017-02-09T10:03:07.551Z,2.27
2017-02-09T10:04:08.114Z,2.27
2017-02-09T10:06:07.753Z,2.61
2017-02-09T10:06:11.050Z,2.45
2017-02-09T10:07:07.692Z,2.66
2017-02-09T10:08:07.284Z,2.94
2017-02-09T10:09:07.850Z,2.74
2017-02-09T10:10:07.461Z,2.52
2017-02-09T10:11:08.034Z,2.71
2017-02-09T10:12:07.529Z,2.68
2017-02-09T10:13:08.175Z,2.36
2017-02-09T10:14:08.713Z,2.56
2017-02-09T10:15:07.387Z,2.80
2017-02-09T10:16:07.894Z,3.03
2017-02-09T10:17:07.666Z,2.77
2017-02-09T10:18:07.259Z,2.70
2017-02-09T10:19:08.031Z,2.35
2017-02-09T10:20:07.696Z,2.56
2017-02-09T10:21:07.147Z,2.58
2017-02-09T10:22:07.714Z,2.32
2017-02-09T10:23:07.313Z,2.69
2017-02-09T10:24:07.947Z,2.92
2017-02-09T10:25:07.804Z,3.09
2017-02-09T10:26:07.369Z,2.85
2017-02-09T10:27:07.839Z,2.74
2017-02-09T10:28:07.561Z,2.97
2017-02-09T10:29:08.077Z,3.17
2017-02-09T10:30:07.645Z,3.31
2017-02-09T10:31:07.270Z,3.25
2017-02-09T10:32:07.761Z,2.60
2017-02-09T10:33:08.239Z,2.27
2017-02-09T10:34:08.391Z,2.85
2017-02-09T10:35:07.952Z,3.07
2017-02-09T10:36:07.686Z,3.01
2017-02-09T10:37:07.649Z,2.57
2017-02-09T10:38:07.078Z,2.60
2017-02-09T10:39:07.618Z,2.81
2017-02-09T10:40:07.299Z,3.01
2017-02-09T10:41:07.783Z,2.58
2017-02-09T10:42:07.380Z,2.50
2017-02-09T10:43:08.900Z,2.67
2017-02-09T10:44:07.848Z,2.97
2017-02-09T10:45:07.360Z,2.74
2017-02-09T10:46:07.436Z,2.66
2017-02-09T10:47:08.362Z,2.33
2017-02-09T10:48:07.958Z,2.39
2017-02-09T10:49:07.702Z,2.56
2017-02-09T10:50:07.192Z,2.66
2017-02-09T10:51:07.678Z,2.43
2017-02-09T10:52:07.241Z,2.33
2017-02-09T10:53:07.924Z,2.41
2017-02-09T10:54:07.784Z,2.65
2017-02-09T10:55:07.396Z,2.85
2017-02-09T10:56:07.883Z,3.07
2017-02-09T10:57:07.445Z,2.77
2017-02-09T10:58:08.141Z,2.75
2017-02-09T10:59:07.771Z,3.11
2017-02-09T11:00:07.326Z,2.76
2017-02-09T11:01:07.873Z,2.70
2017-02-09T11:02:07.438Z,3.10
2017-02-09T11:03:07.967Z,3.12
2017-02-09T11:04:07.848Z,3.28
2017-02-09T11:05:07.510Z,3.01
2017-02-09T11:06:08.088Z,2.69
2017-02-09T11:07:07.695Z,2.76
2017-02-09T11:08:07.377Z,2.86
2017-02-09T11:09:08.062Z,3.04
2017-02-09T11:10:07.621Z,3.32
2017-02-09T11:11:07.163Z,3.34
2017-02-09T11:12:08.047Z,3.41
2017-02-09T11:13:07.545Z,3.45
2017-02-09T11:14:08.501Z,3.37
2017-02-09T11:15:08.212Z,3.57
2017-02-09T11:16:07.700Z,3.45
2017-02-09T11:17:07.652Z,3.15
2017-02-09T11:18:07.214Z,2.53
2017-02-09T11:19:07.749Z,2.72
2017-02-09T11:20:07.365Z,2.76
2017-02-09T11:21:07.580Z,2.84
2017-02-09T11:22:07.318Z,3.08
2017-02-09T11:23:07.822Z,2.95
2017-02-09T11:24:07.295Z,3.16
2017-02-09T11:25:07.878Z,3.26
2017-02-09T11:26:07.420Z,3.32
2017-02-09T11:27:07.969Z,3.26
2017-02-09T11:28:07.395Z,3.19
2017-02-09T11:29:08.934Z,3.09
2017-02-09T11:30:07.618Z,3.04
2017-02-09T11:31:07.461Z,3.28
2017-02-09T11:32:07.950Z,3.20
2017-02-09T11:33:07.413Z,3.12
2017-02-09T11:34:08.014Z,3.23
2017-02-09T11:35:08.501Z,3.48
2017-02-09T11:36:07.491Z,3.78
2017-02-09T11:37:07.847Z,3.40
2017-02-09T11:38:07.425Z,3.06
2017-02-09T11:39:07.994Z,2.89
2017-02-09T11:40:08.044Z,2.94
2017-02-09T11:41:07.658Z,3.07
2017-02-09T11:42:07.400Z,2.99
2017-02-09T11:43:08.191Z,2.57
2017-02-09T11:44:08.645Z,2.66
2017-02-09T11:45:07.917Z,2.53
2017-02-09T11:46:07.438Z,2.52
2017-02-09T11:47:07.962Z,2.40
2017-02-09T11:48:07.604Z,2.80
2017-02-09T11:49:08.543Z,3.12
2017-02-09T11:50:08.376Z,3.06
2017-02-09T11:51:07.984Z,3.19
2017-02-09T11:52:07.611Z,2.92
2017-02-09T11:53:07.228Z,2.68
2017-02-09T11:54:17.541Z,2.78
2017-02-09T11:55:08.128Z,2.96
2017-02-09T11:56:07.671Z,2.81
2017-02-09T11:57:07.173Z,2.73
2017-02-09T11:58:07.716Z,2.80
2017-02-09T11:59:07.774Z,3.04
2017-02-09T12:00:07.526Z,2.99
2017-02-09T12:01:08.062Z,2.81
2017-02-09T12:02:07.627Z,2.70
2017-02-09T12:03:07.425Z,2.84
2017-02-09T12:04:07.935Z,2.80
2017-02-09T12:05:07.479Z,2.86
2017-02-09T12:06:08.008Z,2.56
2017-02-09T12:07:07.762Z,2.12
2017-02-09T12:08:07.385Z,2.35
2017-02-09T12:09:19.059Z,2.70
2017-02-09T12:10:07.631Z,3.23
2017-02-09T12:11:07.099Z,2.74
2017-02-09T12:12:07.661Z,2.96
2017-02-09T12:13:07.327Z,3.35
2017-02-09T12:14:07.902Z,3.33
2017-02-09T12:15:07.454Z,3.31
2017-02-09T12:16:08.203Z,3.49
2017-02-09T12:17:07.870Z,3.15
2017-02-09T12:18:07.406Z,3.27
2017-02-09T12:19:09.205Z,3.34
2017-02-09T12:20:07.985Z,3.64
2017-02-09T12:21:07.500Z,3.38
2017-02-09T12:22:08.091Z,3.05
2017-02-09T12:23:07.605Z,3.03
2017-02-09T12:24:07.371Z,3.34
2017-02-09T12:25:07.943Z,3.37
2017-02-09T12:26:07.445Z,3.18
2017-02-09T12:27:08.078Z,3.47
2017-02-09T12:28:07.772Z,3.67
2017-02-09T12:29:07.232Z,3.73
2017-02-09T12:30:07.828Z,3.73
2017-02-09T12:31:07.477Z,3.72
2017-02-09T12:32:09.028Z,3.35
2017-02-09T12:33:07.752Z,3.58
2017-02-09T12:34:07.550Z,3.55
2017-02-09T12:35:08.090Z,3.93
2017-02-09T12:36:07.612Z,3.94
2017-02-09T12:37:07.261Z,3.36
2017-02-09T12:38:07.832Z,3.82
2017-02-09T12:39:08.340Z,3.35
2017-02-09T12:40:07.072Z,3.43
2017-02-09T12:41:07.620Z,3.64
2017-02-09T12:42:07.180Z,3.56
2017-02-09T12:43:07.750Z,3.66
2017-02-09T12:44:07.382Z,3.63
2017-02-09T12:45:07.967Z,3.66
2017-02-09T12:46:07.425Z,3.64
2017-02-09T12:47:07.940Z,3.26
2017-02-09T12:48:07.492Z,3.41
2017-02-09T12:49:08.076Z,3.35
2017-02-09T12:50:07.731Z,3.53
2017-02-09T12:51:08.038Z,3.37
2017-02-09T12:52:07.692Z,3.39
2017-02-09T12:53:07.182Z,3.11
2017-02-09T12:54:07.930Z,3.18
2017-02-09T12:55:07.504Z,3.29
2017-02-09T12:56:07.520Z,3.59
2017-02-09T12:57:08.080Z,3.49
2017-02-09T12:58:07.631Z,3.56
2017-02-09T12:59:07.134Z,3.48
2017-02-09T13:00:07.673Z,3.50
2017-02-09T13:01:07.271Z,3.37
2017-02-09T13:02:08.047Z,3.43
2017-02-09T13:03:08.631Z,3.37
2017-02-09T13:04:07.120Z,3.65
2017-02-09T13:05:07.672Z,3.46
2017-02-09T13:06:07.119Z,3.48
2017-02-09T13:07:07.712Z,3.44
2017-02-09T13:08:07.540Z,3.39
2017-02-09T13:09:08.106Z,3.58
2017-02-09T13:10:07.589Z,3.63
2017-02-09T13:11:07.235Z,3.74
2017-02-09T13:12:07.760Z,3.51
2017-02-09T13:13:07.215Z,3.77
2017-02-09T13:14:07.785Z,3.50
2017-02-09T13:15:07.334Z,3.54
2017-02-09T13:16:08.982Z,3.65
2017-02-09T13:17:07.849Z,3.66
2017-02-09T13:18:07.457Z,3.40
2017-02-09T13:19:08.094Z,3.23
2017-02-09T13:20:07.903Z,3.10
2017-02-09T13:21:08.173Z,3.15